sensor_id;sensor_type;location;lat;lon;timestamp;P1;durP1;ratioP1;P2;durP2;ratioP2
38529;SDS011;24301;54.332;48.386;2022-11-04T00:01:58;10.33;;;6.27;;
38529;SDS011;24301;54.332;48.386;2022-11-04T00:04:26;12.17;;;5.77;;
38529;SDS011;24301;54.332;48.386;2022-11-04T00:06:53;27.27;;;6.97;;
38529;SDS011;24301;54.332;48.386;2022-11-04T00:09:24;8.70;;;5.20;;
38529;SDS011;24301;54.332;48.386;2022-11-04T00:11:52;9.67;;;5.40;;
38529;SDS011;24301;54.332;48.386;2022-11-04T00:14:36;6.50;;;4.80;;
38529;SDS011;24301;54.332;48.386;2022-11-04T00:17:03;9.97;;;6.37;;
38529;SDS011;24301;54.332;48.386;2022-11-04T00:19:50;7.05;;;4.60;;
38529;SDS011;24301;54.332;48.386;2022-11-04T00:22:36;10.40;;;5.10;;
38529;SDS011;24301;54.332;48.386;2022-11-04T00:25:21;8.37;;;4.80;;
38529;SDS011;24301;54.332;48.386;2022-11-04T00:28:15;9.87;;;4.70;;
38529;SDS011;24301;54.332;48.386;2022-11-04T00:31:02;12.80;;;5.50;;
38529;SDS011;24301;54.332;48.386;2022-11-04T00:33:51;8.20;;;5.37;;
38529;SDS011;24301;54.332;48.386;2022-11-04T00:36:18;7.60;;;5.47;;
38529;SDS011;24301;54.332;48.386;2022-11-04T00:38:45;8.43;;;4.60;;
38529;SDS011;24301;54.332;48.386;2022-11-04T00:41:11;7.63;;;5.33;;
38529;SDS011;24301;54.332;48.386;2022-11-04T00:43:57;16.30;;;6.07;;
38529;SDS011;24301;54.332;48.386;2022-11-04T00:46:25;17.10;;;6.27;;
38529;SDS011;24301;54.332;48.386;2022-11-04T00:48:51;11.23;;;5.27;;
38529;SDS011;24301;54.332;48.386;2022-11-04T00:51:17;8.50;;;5.93;;
38529;SDS011;24301;54.332;48.386;2022-11-04T00:53:45;8.20;;;5.30;;
38529;SDS011;24301;54.332;48.386;2022-11-04T00:56:12;10.33;;;5.20;;
38529;SDS011;24301;54.332;48.386;2022-11-04T00:58:38;12.43;;;5.57;;
38529;SDS011;24301;54.332;48.386;2022-11-04T01:01:11;6.37;;;4.53;;
38529;SDS011;24301;54.332;48.386;2022-11-04T01:03:42;11.80;;;5.00;;
38529;SDS011;24301;54.332;48.386;2022-11-04T01:06:08;8.43;;;5.00;;
38529;SDS011;24301;54.332;48.386;2022-11-04T01:08:34;8.90;;;5.43;;
38529;SDS011;24301;54.332;48.386;2022-11-04T01:11:03;8.67;;;5.50;;
38529;SDS011;24301;54.332;48.386;2022-11-04T01:13:30;11.87;;;6.53;;
38529;SDS011;24301;54.332;48.386;2022-11-04T01:15:57;5.97;;;4.73;;
38529;SDS011;24301;54.332;48.386;2022-11-04T01:18:24;9.50;;;6.43;;
38529;SDS011;24301;54.332;48.386;2022-11-04T01:20:50;9.37;;;6.03;;
38529;SDS011;24301;54.332;48.386;2022-11-04T01:23:16;8.47;;;4.77;;
38529;SDS011;24301;54.332;48.386;2022-11-04T01:25:41;9.03;;;5.53;;
38529;SDS011;24301;54.332;48.386;2022-11-04T01:28:07;8.40;;;5.63;;
38529;SDS011;24301;54.332;48.386;2022-11-04T01:30:33;7.63;;;4.93;;
38529;SDS011;24301;54.332;48.386;2022-11-04T01:33:02;8.40;;;5.70;;
38529;SDS011;24301;54.332;48.386;2022-11-04T01:35:27;10.73;;;6.40;;
38529;SDS011;24301;54.332;48.386;2022-11-04T01:37:53;8.10;;;6.00;;
38529;SDS011;24301;54.332;48.386;2022-11-04T01:40:19;8.23;;;5.20;;
38529;SDS011;24301;54.332;48.386;2022-11-04T01:42:45;8.23;;;5.80;;
38529;SDS011;24301;54.332;48.386;2022-11-04T01:45:12;7.80;;;4.97;;
38529;SDS011;24301;54.332;48.386;2022-11-04T01:47:40;7.93;;;4.93;;
38529;SDS011;24301;54.332;48.386;2022-11-04T01:50:13;8.63;;;5.97;;
38529;SDS011;24301;54.332;48.386;2022-11-04T01:52:43;9.87;;;5.27;;
38529;SDS011;24301;54.332;48.386;2022-11-04T01:55:15;9.13;;;6.57;;
38529;SDS011;24301;54.332;48.386;2022-11-04T01:57:48;9.00;;;5.03;;
38529;SDS011;24301;54.332;48.386;2022-11-04T02:00:15;8.37;;;5.47;;
38529;SDS011;24301;54.332;48.386;2022-11-04T02:02:48;11.10;;;5.57;;
38529;SDS011;24301;54.332;48.386;2022-11-04T02:05:19;9.93;;;5.47;;
38529;SDS011;24301;54.332;48.386;2022-11-04T02:07:49;7.57;;;4.97;;
38529;SDS011;24301;54.332;48.386;2022-11-04T02:10:19;8.15;;;5.43;;
38529;SDS011;24301;54.332;48.386;2022-11-04T02:12:49;8.13;;;5.30;;
38529;SDS011;24301;54.332;48.386;2022-11-04T02:15:16;8.43;;;5.47;;
38529;SDS011;24301;54.332;48.386;2022-11-04T02:20:59;10.13;;;5.00;;
38529;SDS011;24301;54.332;48.386;2022-11-04T02:24:02;9.57;;;5.83;;
38529;SDS011;24301;54.332;48.386;2022-11-04T02:37:41;9.23;;;5.67;;
38529;SDS011;24301;54.332;48.386;2022-11-04T02:40:25;8.43;;;5.40;;
38529;SDS011;24301;54.332;48.386;2022-11-04T02:43:20;14.57;;;6.57;;
38529;SDS011;24301;54.332;48.386;2022-11-04T02:45:55;10.97;;;6.10;;
38529;SDS011;24301;54.332;48.386;2022-11-04T02:48:30;8.73;;;6.33;;
38529;SDS011;24301;54.332;48.386;2022-11-04T02:53:54;9.07;;;5.93;;
38529;SDS011;24301;54.332;48.386;2022-11-04T02:56:30;8.33;;;5.40;;
38529;SDS011;24301;54.332;48.386;2022-11-04T02:59:06;8.93;;;5.60;;
38529;SDS011;24301;54.332;48.386;2022-11-04T03:01:38;7.50;;;5.40;;
38529;SDS011;24301;54.332;48.386;2022-11-04T03:04:14;7.90;;;5.63;;
38529;SDS011;24301;54.332;48.386;2022-11-04T03:06:56;9.40;;;5.80;;
38529;SDS011;24301;54.332;48.386;2022-11-04T03:09:24;9.80;;;5.53;;
38529;SDS011;24301;54.332;48.386;2022-11-04T03:11:57;10.43;;;6.27;;
38529;SDS011;24301;54.332;48.386;2022-11-04T03:14:35;11.27;;;7.53;;
38529;SDS011;24301;54.332;48.386;2022-11-04T03:17:12;9.27;;;6.33;;
38529;SDS011;24301;54.332;48.386;2022-11-04T03:19:52;10.73;;;5.93;;
38529;SDS011;24301;54.332;48.386;2022-11-04T03:22:22;10.27;;;5.57;;
38529;SDS011;24301;54.332;48.386;2022-11-04T03:24:51;9.80;;;5.83;;
38529;SDS011;24301;54.332;48.386;2022-11-04T03:35:24;9.23;;;5.68;;
38529;SDS011;24301;54.332;48.386;2022-11-04T03:37:51;7.70;;;5.50;;
38529;SDS011;24301;54.332;48.386;2022-11-04T03:40:18;7.80;;;5.70;;
38529;SDS011;24301;54.332;48.386;2022-11-04T03:42:51;8.03;;;5.83;;
38529;SDS011;24301;54.332;48.386;2022-11-04T03:45:23;8.87;;;5.97;;
38529;SDS011;24301;54.332;48.386;2022-11-04T03:47:50;9.30;;;6.90;;
38529;SDS011;24301;54.332;48.386;2022-11-04T03:50:18;8.37;;;5.70;;
38529;SDS011;24301;54.332;48.386;2022-11-04T03:55:16;11.40;;;6.90;;
38529;SDS011;24301;54.332;48.386;2022-11-04T03:57:52;7.47;;;4.93;;
38529;SDS011;24301;54.332;48.386;2022-11-04T04:00:31;8.97;;;6.40;;
38529;SDS011;24301;54.332;48.386;2022-11-04T04:08:36;9.20;;;5.87;;
38529;SDS011;24301;54.332;48.386;2022-11-04T04:11:09;6.60;;;5.40;;
38529;SDS011;24301;54.332;48.386;2022-11-04T04:16:20;7.20;;;5.27;;
38529;SDS011;24301;54.332;48.386;2022-11-04T04:19:04;9.02;;;6.25;;
38529;SDS011;24301;54.332;48.386;2022-11-04T04:21:36;7.97;;;5.88;;
38529;SDS011;24301;54.332;48.386;2022-11-04T04:24:09;6.70;;;4.73;;
38529;SDS011;24301;54.332;48.386;2022-11-04T04:26:58;6.80;;;4.90;;
38529;SDS011;24301;54.332;48.386;2022-11-04T04:29:44;8.00;;;6.03;;
38529;SDS011;24301;54.332;48.386;2022-11-04T04:32:11;9.77;;;6.17;;
38529;SDS011;24301;54.332;48.386;2022-11-04T04:34:38;8.70;;;5.50;;
38529;SDS011;24301;54.332;48.386;2022-11-04T04:37:13;7.47;;;5.90;;
38529;SDS011;24301;54.332;48.386;2022-11-04T04:39:45;11.53;;;7.43;;
38529;SDS011;24301;54.332;48.386;2022-11-04T04:42:33;9.13;;;6.20;;
38529;SDS011;24301;54.332;48.386;2022-11-04T04:45:22;8.77;;;6.03;;
38529;SDS011;24301;54.332;48.386;2022-11-04T04:47:55;8.00;;;5.53;;
38529;SDS011;24301;54.332;48.386;2022-11-04T04:50:21;8.13;;;6.23;;
38529;SDS011;24301;54.332;48.386;2022-11-04T04:52:51;9.83;;;5.77;;
38529;SDS011;24301;54.332;48.386;2022-11-04T04:55:19;8.70;;;6.27;;
38529;SDS011;24301;54.332;48.386;2022-11-04T04:57:45;7.13;;;5.10;;
38529;SDS011;24301;54.332;48.386;2022-11-04T05:00:12;8.47;;;6.17;;
38529;SDS011;24301;54.332;48.386;2022-11-04T05:02:42;6.73;;;5.07;;
38529;SDS011;24301;54.332;48.386;2022-11-04T05:05:08;9.30;;;7.20;;
38529;SDS011;24301;54.332;48.386;2022-11-04T05:07:35;7.27;;;5.20;;
38529;SDS011;24301;54.332;48.386;2022-11-04T05:10:02;7.50;;;5.23;;
38529;SDS011;24301;54.332;48.386;2022-11-04T05:12:28;11.80;;;6.43;;
38529;SDS011;24301;54.332;48.386;2022-11-04T05:15:14;7.57;;;5.43;;
38529;SDS011;24301;54.332;48.386;2022-11-04T05:17:40;7.90;;;6.40;;
38529;SDS011;24301;54.332;48.386;2022-11-04T05:20:07;7.40;;;5.77;;
38529;SDS011;24301;54.332;48.386;2022-11-04T05:22:33;7.23;;;5.33;;
38529;SDS011;24301;54.332;48.386;2022-11-04T05:24:59;9.83;;;5.83;;
38529;SDS011;24301;54.332;48.386;2022-11-04T05:27:25;9.63;;;6.60;;
38529;SDS011;24301;54.332;48.386;2022-11-04T05:29:51;8.13;;;5.50;;
38529;SDS011;24301;54.332;48.386;2022-11-04T05:32:17;9.33;;;6.10;;
38529;SDS011;24301;54.332;48.386;2022-11-04T05:34:42;7.97;;;5.27;;
38529;SDS011;24301;54.332;48.386;2022-11-04T05:37:08;7.57;;;5.47;;
38529;SDS011;24301;54.332;48.386;2022-11-04T05:39:34;9.20;;;5.83;;
38529;SDS011;24301;54.332;48.386;2022-11-04T05:42:00;8.47;;;5.03;;
38529;SDS011;24301;54.332;48.386;2022-11-04T05:44:26;7.37;;;5.83;;
38529;SDS011;24301;54.332;48.386;2022-11-04T05:46:52;8.27;;;5.83;;
38529;SDS011;24301;54.332;48.386;2022-11-04T05:49:18;6.83;;;5.33;;
38529;SDS011;24301;54.332;48.386;2022-11-04T05:51:43;8.73;;;5.20;;
38529;SDS011;24301;54.332;48.386;2022-11-04T05:54:09;8.77;;;6.17;;
38529;SDS011;24301;54.332;48.386;2022-11-04T05:56:35;8.63;;;6.20;;
38529;SDS011;24301;54.332;48.386;2022-11-04T05:59:01;7.50;;;6.00;;
38529;SDS011;24301;54.332;48.386;2022-11-04T06:04:03;8.43;;;5.30;;
38529;SDS011;24301;54.332;48.386;2022-11-04T06:06:31;7.93;;;5.27;;
38529;SDS011;24301;54.332;48.386;2022-11-04T06:08:59;7.20;;;5.20;;
38529;SDS011;24301;54.332;48.386;2022-11-04T06:11:26;7.60;;;4.57;;
38529;SDS011;24301;54.332;48.386;2022-11-04T06:13:54;6.90;;;5.20;;
38529;SDS011;24301;54.332;48.386;2022-11-04T06:16:21;7.87;;;4.90;;
38529;SDS011;24301;54.332;48.386;2022-11-04T06:18:47;7.37;;;5.60;;
38529;SDS011;24301;54.332;48.386;2022-11-04T06:23:39;7.87;;;5.70;;
38529;SDS011;24301;54.332;48.386;2022-11-04T06:26:06;8.87;;;6.27;;
38529;SDS011;24301;54.332;48.386;2022-11-04T06:28:32;9.07;;;5.70;;
38529;SDS011;24301;54.332;48.386;2022-11-04T06:30:59;8.93;;;5.97;;
38529;SDS011;24301;54.332;48.386;2022-11-04T06:33:27;8.07;;;5.80;;
38529;SDS011;24301;54.332;48.386;2022-11-04T06:35:57;9.17;;;5.73;;
38529;SDS011;24301;54.332;48.386;2022-11-04T06:38:24;6.80;;;4.90;;
38529;SDS011;24301;54.332;48.386;2022-11-04T06:40:51;8.80;;;5.60;;
38529;SDS011;24301;54.332;48.386;2022-11-04T06:43:17;6.17;;;4.80;;
38529;SDS011;24301;54.332;48.386;2022-11-04T06:45:43;6.57;;;5.00;;
38529;SDS011;24301;54.332;48.386;2022-11-04T06:48:09;7.00;;;6.07;;
38529;SDS011;24301;54.332;48.386;2022-11-04T06:50:34;6.43;;;5.53;;
38529;SDS011;24301;54.332;48.386;2022-11-04T06:53:00;7.13;;;5.40;;
38529;SDS011;24301;54.332;48.386;2022-11-04T06:55:26;7.27;;;5.40;;
38529;SDS011;24301;54.332;48.386;2022-11-04T06:57:52;6.97;;;5.10;;
38529;SDS011;24301;54.332;48.386;2022-11-04T07:00:18;9.20;;;5.10;;
38529;SDS011;24301;54.332;48.386;2022-11-04T07:02:44;7.07;;;5.50;;
38529;SDS011;24301;54.332;48.386;2022-11-04T07:05:10;7.80;;;5.30;;
38529;SDS011;24301;54.332;48.386;2022-11-04T07:07:36;7.43;;;5.60;;
38529;SDS011;24301;54.332;48.386;2022-11-04T07:10:02;8.00;;;5.37;;
38529;SDS011;24301;54.332;48.386;2022-11-04T07:12:29;8.17;;;5.10;;
38529;SDS011;24301;54.332;48.386;2022-11-04T07:14:54;9.10;;;6.20;;
38529;SDS011;24301;54.332;48.386;2022-11-04T07:17:20;6.20;;;4.63;;
38529;SDS011;24301;54.332;48.386;2022-11-04T07:19:46;6.87;;;5.37;;
38529;SDS011;24301;54.332;48.386;2022-11-04T07:22:12;9.23;;;5.70;;
38529;SDS011;24301;54.332;48.386;2022-11-04T07:24:38;11.00;;;6.77;;
38529;SDS011;24301;54.332;48.386;2022-11-04T07:27:04;9.43;;;5.67;;
38529;SDS011;24301;54.332;48.386;2022-11-04T07:29:32;9.43;;;5.17;;
38529;SDS011;24301;54.332;48.386;2022-11-04T07:31:58;8.40;;;5.63;;
38529;SDS011;24301;54.332;48.386;2022-11-04T07:34:23;7.63;;;5.80;;
38529;SDS011;24301;54.332;48.386;2022-11-04T07:36:49;8.53;;;6.33;;
38529;SDS011;24301;54.332;48.386;2022-11-04T07:39:15;8.87;;;6.60;;
38529;SDS011;24301;54.332;48.386;2022-11-04T07:41:41;6.73;;;5.67;;
38529;SDS011;24301;54.332;48.386;2022-11-04T07:44:11;6.87;;;5.50;;
38529;SDS011;24301;54.332;48.386;2022-11-04T07:46:37;6.80;;;5.50;;
38529;SDS011;24301;54.332;48.386;2022-11-04T07:49:03;7.67;;;6.13;;
38529;SDS011;24301;54.332;48.386;2022-11-04T07:51:29;9.13;;;6.13;;
38529;SDS011;24301;54.332;48.386;2022-11-04T07:53:58;7.60;;;5.33;;
38529;SDS011;24301;54.332;48.386;2022-11-04T07:56:25;7.70;;;5.63;;
38529;SDS011;24301;54.332;48.386;2022-11-04T07:58:52;8.80;;;5.37;;
38529;SDS011;24301;54.332;48.386;2022-11-04T08:01:19;7.03;;;4.97;;
38529;SDS011;24301;54.332;48.386;2022-11-04T08:03:50;8.93;;;6.10;;
38529;SDS011;24301;54.332;48.386;2022-11-04T08:06:17;7.07;;;5.10;;
38529;SDS011;24301;54.332;48.386;2022-11-04T08:08:44;7.47;;;5.90;;
38529;SDS011;24301;54.332;48.386;2022-11-04T08:11:16;7.07;;;5.60;;
38529;SDS011;24301;54.332;48.386;2022-11-04T08:13:44;7.90;;;5.63;;
38529;SDS011;24301;54.332;48.386;2022-11-04T08:16:12;6.97;;;5.57;;
38529;SDS011;24301;54.332;48.386;2022-11-04T08:18:40;8.43;;;6.70;;
38529;SDS011;24301;54.332;48.386;2022-11-04T08:21:06;12.90;;;6.37;;
38529;SDS011;24301;54.332;48.386;2022-11-04T08:23:33;7.77;;;5.60;;
38529;SDS011;24301;54.332;48.386;2022-11-04T08:26:00;7.60;;;5.17;;
38529;SDS011;24301;54.332;48.386;2022-11-04T08:28:26;7.60;;;5.53;;
38529;SDS011;24301;54.332;48.386;2022-11-04T08:33:29;9.37;;;5.97;;
38529;SDS011;24301;54.332;48.386;2022-11-04T08:36:00;7.80;;;5.60;;
38529;SDS011;24301;54.332;48.386;2022-11-04T08:38:29;9.37;;;6.43;;
38529;SDS011;24301;54.332;48.386;2022-11-04T08:40:56;6.70;;;4.87;;
38529;SDS011;24301;54.332;48.386;2022-11-04T08:43:23;5.70;;;4.37;;
38529;SDS011;24301;54.332;48.386;2022-11-04T08:45:50;7.10;;;5.07;;
38529;SDS011;24301;54.332;48.386;2022-11-04T08:48:16;9.03;;;6.23;;
38529;SDS011;24301;54.332;48.386;2022-11-04T08:50:43;7.77;;;5.47;;
38529;SDS011;24301;54.332;48.386;2022-11-04T08:53:12;7.63;;;5.13;;
38529;SDS011;24301;54.332;48.386;2022-11-04T08:55:38;8.17;;;5.57;;
38529;SDS011;24301;54.332;48.386;2022-11-04T08:58:04;6.73;;;4.67;;
38529;SDS011;24301;54.332;48.386;2022-11-04T09:00:30;6.87;;;5.40;;
38529;SDS011;24301;54.332;48.386;2022-11-04T09:02:57;9.10;;;5.90;;
38529;SDS011;24301;54.332;48.386;2022-11-04T09:05:24;6.70;;;4.97;;
38529;SDS011;24301;54.332;48.386;2022-11-04T09:07:50;6.57;;;4.80;;
38529;SDS011;24301;54.332;48.386;2022-11-04T09:10:16;8.57;;;5.37;;
38529;SDS011;24301;54.332;48.386;2022-11-04T09:12:42;7.93;;;5.90;;
38529;SDS011;24301;54.332;48.386;2022-11-04T09:15:09;8.50;;;6.23;;
38529;SDS011;24301;54.332;48.386;2022-11-04T09:17:38;6.23;;;5.10;;
38529;SDS011;24301;54.332;48.386;2022-11-04T09:20:05;8.20;;;5.33;;
38529;SDS011;24301;54.332;48.386;2022-11-04T09:22:31;5.80;;;4.47;;
38529;SDS011;24301;54.332;48.386;2022-11-04T09:24:57;7.70;;;5.20;;
38529;SDS011;24301;54.332;48.386;2022-11-04T09:27:23;12.83;;;8.43;;
38529;SDS011;24301;54.332;48.386;2022-11-04T09:29:49;10.27;;;7.20;;
38529;SDS011;24301;54.332;48.386;2022-11-04T09:32:15;9.93;;;6.47;;
38529;SDS011;24301;54.332;48.386;2022-11-04T09:34:41;13.27;;;7.00;;
38529;SDS011;24301;54.332;48.386;2022-11-04T09:37:07;8.10;;;6.33;;
38529;SDS011;24301;54.332;48.386;2022-11-04T09:39:33;6.70;;;4.97;;
38529;SDS011;24301;54.332;48.386;2022-11-04T09:42:18;8.63;;;5.90;;
38529;SDS011;24301;54.332;48.386;2022-11-04T09:47:20;7.90;;;6.23;;
38529;SDS011;24301;54.332;48.386;2022-11-04T09:49:47;7.77;;;6.17;;
38529;SDS011;24301;54.332;48.386;2022-11-04T09:52:28;7.27;;;6.13;;
38529;SDS011;24301;54.332;48.386;2022-11-04T09:57:23;9.67;;;5.70;;
38529;SDS011;24301;54.332;48.386;2022-11-04T09:59:49;6.63;;;5.30;;
38529;SDS011;24301;54.332;48.386;2022-11-04T10:02:19;8.83;;;6.73;;
38529;SDS011;24301;54.332;48.386;2022-11-04T10:10:46;8.67;;;6.27;;
38529;SDS011;24301;54.332;48.386;2022-11-04T10:26:42;10.80;;;7.23;;
38529;SDS011;24301;54.332;48.386;2022-11-04T10:29:16;8.73;;;6.47;;
38529;SDS011;24301;54.332;48.386;2022-11-04T10:32:05;9.40;;;6.17;;
38529;SDS011;24301;54.332;48.386;2022-11-04T10:34:45;9.20;;;6.47;;
38529;SDS011;24301;54.332;48.386;2022-11-04T10:37:22;10.13;;;6.50;;
38529;SDS011;24301;54.332;48.386;2022-11-04T10:39:49;9.70;;;6.43;;
38529;SDS011;24301;54.332;48.386;2022-11-04T10:42:23;9.57;;;7.32;;
38529;SDS011;24301;54.332;48.386;2022-11-04T10:44:49;11.50;;;6.10;;
38529;SDS011;24301;54.332;48.386;2022-11-04T10:52:37;10.03;;;7.77;;
38529;SDS011;24301;54.332;48.386;2022-11-04T10:55:40;14.50;;;10.13;;
38529;SDS011;24301;54.332;48.386;2022-11-04T10:58:24;14.93;;;10.57;;
38529;SDS011;24301;54.332;48.386;2022-11-04T11:00:55;15.13;;;9.80;;
38529;SDS011;24301;54.332;48.386;2022-11-04T11:06:15;13.53;;;8.17;;
38529;SDS011;24301;54.332;48.386;2022-11-04T11:08:53;9.57;;;6.05;;
38529;SDS011;24301;54.332;48.386;2022-11-04T11:11:34;13.07;;;6.93;;
38529;SDS011;24301;54.332;48.386;2022-11-04T11:16:53;8.87;;;6.47;;
38529;SDS011;24301;54.332;48.386;2022-11-04T11:19:21;11.17;;;6.90;;
38529;SDS011;24301;54.332;48.386;2022-11-04T11:21:50;8.47;;;5.73;;
38529;SDS011;24301;54.332;48.386;2022-11-04T11:24:22;11.90;;;5.80;;
38529;SDS011;24301;54.332;48.386;2022-11-04T11:26:57;16.53;;;7.43;;
38529;SDS011;24301;54.332;48.386;2022-11-04T11:29:29;11.37;;;6.87;;
38529;SDS011;24301;54.332;48.386;2022-11-04T11:32:04;11.40;;;6.80;;
38529;SDS011;24301;54.332;48.386;2022-11-04T11:34:42;10.77;;;7.13;;
38529;SDS011;24301;54.332;48.386;2022-11-04T11:37:18;14.13;;;7.47;;
38529;SDS011;24301;54.332;48.386;2022-11-04T11:39:49;13.73;;;8.30;;
38529;SDS011;24301;54.332;48.386;2022-11-04T11:42:15;13.70;;;7.10;;
38529;SDS011;24301;54.332;48.386;2022-11-04T11:44:48;18.63;;;7.57;;
38529;SDS011;24301;54.332;48.386;2022-11-04T11:47:21;13.37;;;7.57;;
38529;SDS011;24301;54.332;48.386;2022-11-04T11:52:41;8.60;;;6.07;;
38529;SDS011;24301;54.332;48.386;2022-11-04T12:00:25;9.80;;;6.27;;
38529;SDS011;24301;54.332;48.386;2022-11-04T12:08:59;12.80;;;7.07;;
38529;SDS011;24301;54.332;48.386;2022-11-04T12:11:27;12.97;;;8.33;;
38529;SDS011;24301;54.332;48.386;2022-11-04T12:17:26;14.87;;;8.60;;
38529;SDS011;24301;54.332;48.386;2022-11-04T12:20:16;17.17;;;9.47;;
38529;SDS011;24301;54.332;48.386;2022-11-04T12:22:57;18.00;;;10.57;;
38529;SDS011;24301;54.332;48.386;2022-11-04T12:28:03;20.97;;;11.63;;
38529;SDS011;24301;54.332;48.386;2022-11-04T12:30:52;20.20;;;10.73;;
38529;SDS011;24301;54.332;48.386;2022-11-04T12:33:33;13.47;;;8.20;;
38529;SDS011;24301;54.332;48.386;2022-11-04T12:36:13;10.27;;;7.30;;
38529;SDS011;24301;54.332;48.386;2022-11-04T12:39:03;13.60;;;6.17;;
38529;SDS011;24301;54.332;48.386;2022-11-04T13:00:16;13.50;;;7.07;;
38529;SDS011;24301;54.332;48.386;2022-11-04T13:02:47;13.90;;;8.00;;
38529;SDS011;24301;54.332;48.386;2022-11-04T13:08:14;19.87;;;8.97;;
38529;SDS011;24301;54.332;48.386;2022-11-04T13:11:07;14.40;;;7.05;;
38529;SDS011;24301;54.332;48.386;2022-11-04T13:16:37;10.97;;;7.67;;
38529;SDS011;24301;54.332;48.386;2022-11-04T13:19:09;12.47;;;7.40;;
38529;SDS011;24301;54.332;48.386;2022-11-04T13:21:57;13.70;;;8.30;;
38529;SDS011;24301;54.332;48.386;2022-11-04T13:24:39;13.47;;;8.87;;
38529;SDS011;24301;54.332;48.386;2022-11-04T13:27:36;8.97;;;6.53;;
38529;SDS011;24301;54.332;48.386;2022-11-04T13:30:16;10.43;;;6.23;;
38529;SDS011;24301;54.332;48.386;2022-11-04T13:32:56;8.37;;;5.40;;
38529;SDS011;24301;54.332;48.386;2022-11-04T13:35:32;9.43;;;5.70;;
38529;SDS011;24301;54.332;48.386;2022-11-04T13:39:10;10.27;;;6.00;;
38529;SDS011;24301;54.332;48.386;2022-11-04T13:44:34;8.17;;;5.47;;
38529;SDS011;24301;54.332;48.386;2022-11-04T13:47:13;10.80;;;5.80;;
38529;SDS011;24301;54.332;48.386;2022-11-04T13:49:49;14.17;;;7.23;;
38529;SDS011;24301;54.332;48.386;2022-11-04T13:52:18;11.93;;;6.07;;
38529;SDS011;24301;54.332;48.386;2022-11-04T13:57:27;8.77;;;4.83;;
38529;SDS011;24301;54.332;48.386;2022-11-04T14:02:42;15.00;;;6.55;;
38529;SDS011;24301;54.332;48.386;2022-11-04T14:10:36;12.07;;;6.53;;
38529;SDS011;24301;54.332;48.386;2022-11-04T14:15:59;11.43;;;6.87;;
38529;SDS011;24301;54.332;48.386;2022-11-04T14:18:31;9.17;;;5.87;;
38529;SDS011;24301;54.332;48.386;2022-11-04T14:21:03;12.73;;;8.00;;
38529;SDS011;24301;54.332;48.386;2022-11-04T14:23:35;10.03;;;5.77;;
38529;SDS011;24301;54.332;48.386;2022-11-04T14:26:21;11.70;;;6.77;;
38529;SDS011;24301;54.332;48.386;2022-11-04T14:31:53;12.93;;;7.80;;
38529;SDS011;24301;54.332;48.386;2022-11-04T14:34:32;12.20;;;7.57;;
38529;SDS011;24301;54.332;48.386;2022-11-04T14:37:17;17.70;;;9.00;;
38529;SDS011;24301;54.332;48.386;2022-11-04T14:39:55;11.30;;;7.37;;
38529;SDS011;24301;54.332;48.386;2022-11-04T14:45:08;9.70;;;6.73;;
38529;SDS011;24301;54.332;48.386;2022-11-04T14:47:41;11.35;;;7.43;;
38529;SDS011;24301;54.332;48.386;2022-11-04T14:50:16;13.00;;;7.07;;
38529;SDS011;24301;54.332;48.386;2022-11-04T14:52:49;9.93;;;5.87;;
38529;SDS011;24301;54.332;48.386;2022-11-04T14:55:19;8.60;;;6.30;;
38529;SDS011;24301;54.332;48.386;2022-11-04T14:57:51;8.30;;;6.17;;
38529;SDS011;24301;54.332;48.386;2022-11-04T15:05:36;19.88;;;14.52;;
38529;SDS011;24301;54.332;48.386;2022-11-04T15:13:27;9.23;;;6.20;;
38529;SDS011;24301;54.332;48.386;2022-11-04T15:15:53;8.83;;;6.37;;
38529;SDS011;24301;54.332;48.386;2022-11-04T15:18:22;8.00;;;6.33;;
38529;SDS011;24301;54.332;48.386;2022-11-04T15:20:56;8.83;;;6.13;;
38529;SDS011;24301;54.332;48.386;2022-11-04T15:23:25;12.47;;;7.00;;
38529;SDS011;24301;54.332;48.386;2022-11-04T15:25:52;10.83;;;7.90;;
38529;SDS011;24301;54.332;48.386;2022-11-04T15:28:20;11.57;;;7.13;;
38529;SDS011;24301;54.332;48.386;2022-11-04T15:31:05;12.47;;;8.53;;
38529;SDS011;24301;54.332;48.386;2022-11-04T15:33:37;11.60;;;7.30;;
38529;SDS011;24301;54.332;48.386;2022-11-04T15:36:07;8.55;;;5.97;;
38529;SDS011;24301;54.332;48.386;2022-11-04T15:38:38;11.87;;;5.87;;
38529;SDS011;24301;54.332;48.386;2022-11-04T15:41:08;9.17;;;5.40;;
38529;SDS011;24301;54.332;48.386;2022-11-04T15:43:53;9.13;;;5.83;;
38529;SDS011;24301;54.332;48.386;2022-11-04T15:46:19;9.53;;;5.97;;
38529;SDS011;24301;54.332;48.386;2022-11-04T15:49:00;14.27;;;6.77;;
38529;SDS011;24301;54.332;48.386;2022-11-04T15:51:29;12.13;;;7.03;;
38529;SDS011;24301;54.332;48.386;2022-11-04T15:54:04;11.80;;;7.80;;
38529;SDS011;24301;54.332;48.386;2022-11-04T15:56:46;11.53;;;7.00;;
38529;SDS011;24301;54.332;48.386;2022-11-04T15:59:21;9.73;;;6.50;;
38529;SDS011;24301;54.332;48.386;2022-11-04T16:01:58;9.10;;;5.63;;
38529;SDS011;24301;54.332;48.386;2022-11-04T16:04:26;8.53;;;6.80;;
38529;SDS011;24301;54.332;48.386;2022-11-04T16:07:04;9.27;;;6.33;;
38529;SDS011;24301;54.332;48.386;2022-11-04T16:09:44;12.53;;;7.03;;
38529;SDS011;24301;54.332;48.386;2022-11-04T16:12:14;12.47;;;6.63;;
38529;SDS011;24301;54.332;48.386;2022-11-04T16:14:48;14.80;;;5.93;;
38529;SDS011;24301;54.332;48.386;2022-11-04T16:17:16;10.67;;;4.80;;
38529;SDS011;24301;54.332;48.386;2022-11-04T16:19:47;7.93;;;4.77;;
38529;SDS011;24301;54.332;48.386;2022-11-04T16:22:17;8.53;;;4.40;;
38529;SDS011;24301;54.332;48.386;2022-11-04T16:24:46;9.27;;;4.47;;
38529;SDS011;24301;54.332;48.386;2022-11-04T16:27:17;6.80;;;4.67;;
38529;SDS011;24301;54.332;48.386;2022-11-04T16:29:49;8.07;;;5.00;;
38529;SDS011;24301;54.332;48.386;2022-11-04T16:32:40;6.80;;;4.80;;
38529;SDS011;24301;54.332;48.386;2022-11-04T16:37:45;8.60;;;4.33;;
38529;SDS011;24301;54.332;48.386;2022-11-04T16:40:11;5.37;;;3.80;;
38529;SDS011;24301;54.332;48.386;2022-11-04T16:42:37;4.67;;;3.27;;
38529;SDS011;24301;54.332;48.386;2022-11-04T16:45:03;7.53;;;3.90;;
38529;SDS011;24301;54.332;48.386;2022-11-04T16:47:33;6.20;;;4.07;;
38529;SDS011;24301;54.332;48.386;2022-11-04T16:50:05;10.23;;;4.87;;
38529;SDS011;24301;54.332;48.386;2022-11-04T16:52:38;8.60;;;4.57;;
38529;SDS011;24301;54.332;48.386;2022-11-04T16:55:04;6.60;;;5.00;;
38529;SDS011;24301;54.332;48.386;2022-11-04T16:57:31;11.10;;;5.07;;
38529;SDS011;24301;54.332;48.386;2022-11-04T16:59:57;6.90;;;4.40;;
38529;SDS011;24301;54.332;48.386;2022-11-04T17:02:27;9.50;;;5.27;;
38529;SDS011;24301;54.332;48.386;2022-11-04T17:04:59;6.00;;;4.10;;
38529;SDS011;24301;54.332;48.386;2022-11-04T17:07:25;6.53;;;3.23;;
38529;SDS011;24301;54.332;48.386;2022-11-04T17:09:51;7.80;;;3.80;;
38529;SDS011;24301;54.332;48.386;2022-11-04T17:12:16;5.93;;;3.73;;
38529;SDS011;24301;54.332;48.386;2022-11-04T17:14:43;8.67;;;4.53;;
38529;SDS011;24301;54.332;48.386;2022-11-04T17:17:09;9.77;;;4.77;;
38529;SDS011;24301;54.332;48.386;2022-11-04T17:19:35;5.17;;;3.77;;
38529;SDS011;24301;54.332;48.386;2022-11-04T17:22:02;7.43;;;4.27;;
38529;SDS011;24301;54.332;48.386;2022-11-04T17:24:30;5.93;;;4.37;;
38529;SDS011;24301;54.332;48.386;2022-11-04T17:26:57;7.53;;;3.53;;
38529;SDS011;24301;54.332;48.386;2022-11-04T17:29:23;6.03;;;3.70;;
38529;SDS011;24301;54.332;48.386;2022-11-04T17:31:49;6.47;;;3.63;;
38529;SDS011;24301;54.332;48.386;2022-11-04T17:34:17;6.10;;;3.37;;